• Join FlightAware (Why Join?)
  • Login
  • US Flag 
07:10PM EDT


 

Airport Tracker/Info


-or-


 

Live Flight TrackerFlight Track Log ✈ FIV606 ✈ 07-May-2013 ✈ KICT - KBFI

Flight Track Log - Related Links

Times and Time Zones

All times are in EDT time to prevent confusion due to time zone crossing. See the FIV606 flight status page for this flight to view local times or setup timezone preferences in your user account.

Time Position Orientation Groundspeed Altitude Reporting Facility
EDT Latitude Longitude Course Direction KTS MPH feet Rate Location/Type
07:19AM 37.6383 -97.4281 224° Southwest 148 170 2,200  Level Kansas City Center
07:19AM 37.6308 -97.4372 224° Southwest 179 206 2,700 2,520 Climbing Kansas City Center
07:20AM 37.6228 -97.4931 260° West 211 243 5,400 3,300 Climbing Kansas City Center
07:21AM 37.6408 -97.5847 284° West 258 297 9,200 3,660 Climbing Kansas City Center
07:22AM 37.6597 -97.6875 283° West 298 343 12,800 3,240 Climbing Kansas City Center
07:23AM 37.6808 -97.8014 283° West 328 377 15,800 2,760 Climbing Kansas City Center
07:24AM 37.7033 -97.9219 283° West 347 399 18,500 2,520 Climbing Kansas City Center
07:25AM 37.7269 -98.0472 283° West 360 414 21,000 2,160 Climbing Kansas City Center
07:26AM 37.7519 -98.1783 284° West 378 435 22,900 1,740 Climbing Kansas City Center
07:27AM 37.7775 -98.3156 283° West 397 457 24,600 1,680 Climbing Kansas City Center
07:28AM 37.8067 -98.4572 285° West 412 474 26,400 1,860 Climbing Kansas City Center
07:29AM 37.8911 -98.5983 307° West 420 483 28,400 1,680 Climbing Kansas City Center
07:30AM 37.9661 -98.7169 309° West 427 491 29,900 1,440 Climbing Kansas City Center
07:31AM 38.0639 -98.8083 324° Northwest 434 499 31,400 1,380 Climbing Kansas City Center
07:32AM 38.1606 -98.9014 323° Northwest 435 501 32,800 1,440 Climbing Kansas City Center
07:33AM 38.2675 -98.9769 331° Northwest 434 499 34,400 1,080 Climbing Kansas City Center
07:34AM 38.3506 -99.0828 315° West 426 490 35,000 240 Climbing Kansas City Center
07:35AM 38.4247 -99.2072 307° West 436 502 35,000  Level Kansas City Center
07:36AM 38.5011 -99.3342 308° West 448 516 35,100 600 Climbing Kansas City Center
07:37AM 38.5750 -99.4581 307° West 442 509 36,300 1,200 Climbing Kansas City Center
07:38AM 38.6456 -99.5750 308° West 430 495 37,600 1,320 Climbing Kansas City Center
07:39AM 38.6986 -99.6667 307° West 423 487 38,500 1,080 Climbing Denver Center
07:40AM 38.7642 -99.7750 308° West 411 473 39,400 720 Climbing Denver Center
07:41AM 38.8261 -99.8806 307° West 397 457 40,000 240 Climbing Denver Center
07:42AM 38.8911 -99.9878 308° West 398 458 40,000  Level Denver Center
07:43AM 38.9694 -100.1239 307° West 418 481 40,000  Level Denver Center
07:44AM 39.0381 -100.2386 308° West 417 480 40,000  Level Denver Center
07:45AM 39.1058 -100.3550 307° West 422 486 40,000  Level Denver Center
07:46AM 39.1744 -100.4731 307° West 428 493 40,000  Level Denver Center
07:47AM 39.2544 -100.6097 307° West 428 493 40,000  Level Denver Center
07:48AM 39.3225 -100.7278 307° West 427 491 40,000  Level Denver Center
07:49AM 39.3908 -100.8453 307° West 427 491 40,000  Level Denver Center
07:50AM 39.4708 -100.9850 307° West 431 496 40,000 -120 Level Denver Center
07:51AM 39.5400 -101.1058 307° West 435 501 39,800 -540 Descending Denver Center
07:52AM 39.6083 -101.2250 307° West 431 496 39,000 -780 Descending Denver Center
07:53AM 39.6772 -101.3492 306° West 439 505 38,300 -540 Descending Denver Center
07:54AM 39.7583 -101.4911 307° West 437 503 38,000 -180 Descending Denver Center
07:55AM 39.8269 -101.6139 306° West 436 502 38,000  Level Denver Center
07:56AM 39.8964 -101.7375 306° West 439 505 38,000  Level Denver Center
07:57AM 39.9656 -101.8617 306° West 442 509 38,000  Level Denver Center
07:58AM 40.0469 -102.0067 306° West 443 510 38,000  Level Denver Center
07:59AM 40.1153 -102.1311 306° West 441 507 38,000  Level Denver Center
08:00AM 40.1850 -102.2567 306° West 444 511 38,000  Level Denver Center
08:01AM 40.2531 -102.3808 306° West 439 505 38,000  Level Denver Center
08:02AM 40.3333 -102.5278 306° West 441 507 38,000  Level Denver Center
08:03AM 40.4014 -102.6542 305° West 441 507 38,000  Level Denver Center
08:04AM 40.4731 -102.7850 306° West 442 509 38,000  Level Denver Center
08:05AM 40.5439 -102.9175 305° West 441 507 38,000  Level Denver Center
08:06AM 40.6169 -103.0514 306° West 445 512 38,000  Level Denver Center
08:07AM 40.6869 -103.1836 305° West 439 505 38,000  Level Denver Center
08:08AM 40.7586 -103.3167 305° West 441 507 38,000  Level Denver Center
08:09AM 40.8286 -103.4497 305° West 439 505 38,000  Level Denver Center
08:10AM 40.8994 -103.5836 305° West 440 506 38,000  Level Denver Center
08:11AM 40.9703 -103.7172 305° West 440 506 38,000  Level Denver Center
08:12AM 41.0392 -103.8492 305° West 442 509 38,000  Level Denver Center
08:13AM 41.1064 -103.9783 305° West 444 511 38,000  Level Denver Center
08:14AM 41.1856 -104.1297 305° West 446 513 38,000  Level Denver Center
08:15AM 41.2519 -104.2600 304° West 445 512 38,000  Level Denver Center
08:16AM 41.3197 -104.3900 305° West 446 513 38,000  Level Denver Center
08:17AM 41.3969 -104.5419 304° West 443 510 38,000  Level Denver Center
08:18AM 41.4631 -104.6725 304° West 442 509 38,000  Level Denver Center
08:19AM 41.5300 -104.8019 305° West 442 509 38,000  Level Denver Center
08:20AM 41.6058 -104.9531 304° West 440 506 38,000  Level Denver Center
08:21AM 41.6703 -105.0825 304° West 438 504 38,000  Level Denver Center
08:22AM 41.7361 -105.2125 304° West 439 505 38,000  Level Denver Center
08:23AM 41.8117 -105.3639 304° West 438 504 38,000  Level Denver Center
08:24AM 41.8772 -105.4947 304° West 440 506 38,000  Level Denver Center
08:25AM 41.9411 -105.6244 304° West 436 502 38,000  Level Denver Center
08:26AM 42.0067 -105.7561 304° West 439 505 38,000  Level Denver Center
08:27AM 42.0819 -105.9097 303° West 441 507 38,000  Level Denver Center
08:28AM 42.1458 -106.0400 304° West 436 502 38,000  Level Denver Center
08:29AM 42.2103 -106.1719 303° West 437 503 38,000  Level Denver Center
08:30AM 42.2839 -106.3258 303° West 436 502 38,000  Level Denver Center
08:31AM 42.3481 -106.4586 303° West 439 505 38,000  Level Denver Center
08:32AM 42.4117 -106.5931 303° West 441 507 38,000  Level Denver Center
08:33AM 42.4878 -106.7500 303° West 446 513 38,000  Level Denver Center
08:34AM 42.5486 -106.8817 302° West 444 511 38,000  Level Denver Center
08:35AM 42.6225 -107.0386 303° West 443 510 38,000  Level Denver Center
08:36AM 42.6881 -107.1789 302° West 445 512 38,000  Level Denver Center
08:37AM 42.7500 -107.3097 303° West 443 510 38,000  Level Denver Center
08:38AM 42.8244 -107.4689 303° West 445 512 38,000  Level Denver Center
08:39AM 42.8864 -107.6044 302° West 443 510 38,000  Level Salt Lake Center
08:40AM 42.9525 -107.7472 302° West 446 513 38,000  Level Salt Lake Center
08:41AM 43.0267 -107.9086 302° West 448 516 38,000  Level Salt Lake Center
08:42AM 43.0903 -108.0481 302° West 450 518 38,000  Level Salt Lake Center
08:43AM 43.1525 -108.1872 302° West 448 516 38,000  Level Salt Lake Center
08:44AM 43.2164 -108.3300 302° West 454 522 38,000  Level Salt Lake Center
08:45AM 43.2906 -108.4953 302° West 455 524 38,000  Level Salt Lake Center
08:46AM 43.3536 -108.6381 301° West 456 525 38,000  Level Salt Lake Center
08:47AM 43.4175 -108.7803 302° West 456 525 38,000  Level Salt Lake Center
08:48AM 43.4917 -108.9464 302° West 457 526 38,000  Level Salt Lake Center
08:49AM 43.5553 -109.0908 301° West 458 527 38,000  Level Salt Lake Center
08:50AM 43.6192 -109.2353 301° West 459 528 38,000  Level Salt Lake Center
08:51AM 43.6928 -109.4058 301° West 461 531 38,000  Level Salt Lake Center
08:52AM 43.7517 -109.5411 301° West 463 533 38,000  Level Salt Lake Center
08:53AM 43.8244 -109.7103 301° West 461 531 38,000  Level Salt Lake Center
08:55AM 43.8883 -109.8569 301° West 464 534 38,000  Level Salt Lake Center
08:56AM 43.9514 -110.0031 301° West 462 532 38,000  Level Salt Lake Center
08:57AM 44.0231 -110.1761 300° West 462 532 38,000  Level Salt Lake Center
08:58AM 44.0864 -110.3242 301° West 464 534 38,000  Level Salt Lake Center
08:59AM 44.1483 -110.4736 300° West 467 537 38,000  Level Salt Lake Center
09:00AM 44.2200 -110.6461 300° West 462 532 38,000  Level Salt Lake Center
09:01AM 44.2814 -110.7944 300° West 461 531 38,000  Level Salt Lake Center
09:02AM 44.3439 -110.9442 300° West 464 534 38,000  Level Salt Lake Center
09:03AM 44.4153 -111.1175 300° West 461 531 38,000  Level Salt Lake Center
09:04AM 44.4761 -111.2661 300° West 461 531 38,000  Level Salt Lake Center
09:05AM 44.5342 -111.4097 300° West 461 531 38,000  Level Salt Lake Center
09:06AM 44.6025 -111.5794 300° West 465 535 38,000  Level Salt Lake Center
09:07AM 44.6628 -111.7292 300° West 460 529 38,000  Level Salt Lake Center
09:08AM 44.7331 -111.9047 299° West 462 532 38,000  Level Salt Lake Center
09:09AM 44.7933 -112.0561 299° West 462 532 38,000  Level Salt Lake Center
09:10AM 44.8625 -112.2350 299° West 464 534 38,000  Level Salt Lake Center
09:11AM 44.9244 -112.3897 300° West 472 543 38,000  Level Salt Lake Center
09:12AM 44.9853 -112.5458 299° West 473 544 38,000  Level Salt Lake Center
09:13AM 45.0550 -112.7283 298° West 473 544 38,000  Level Salt Lake Center
09:14AM 45.1153 -112.8853 299° West 474 545 38,000  Level Salt Lake Center
09:15AM 45.1753 -113.0414 299° West 473 544 38,000  Level Salt Lake Center
09:16AM 45.2464 -113.2283 298° West 481 554 38,000  Level Salt Lake Center
09:17AM 45.3075 -113.3883 299° West 481 554 38,000  Level Salt Lake Center
09:18AM 45.3736 -113.5664 298° West 481 554 38,000  Level Salt Lake Center
09:19AM 45.4342 -113.7275 298° West 482 555 38,000  Level Salt Lake Center
09:20AM 45.4944 -113.8875 298° West 481 554 38,000  Level Salt Lake Center
09:21AM 45.5633 -114.0761 298° West 481 554 38,000  Level Salt Lake Center
09:22AM 45.6200 -114.2294 298° West 482 555 38,000  Level Salt Lake Center
09:23AM 45.6922 -114.4275 298° West 482 555 38,000  Level Salt Lake Center
09:24AM 45.7519 -114.5903 298° West 483 556 38,000  Level Salt Lake Center
09:25AM 45.8103 -114.7544 297° West 484 557 38,000  Level Salt Lake Center
09:26AM 45.8792 -114.9475 297° West 487 560 38,000  Level Salt Lake Center
09:27AM 45.9386 -115.1117 298° West 486 559 38,000  Level Salt Lake Center
09:28AM 45.9731 -115.2133 296° West 485 558 38,000  Level Seattle Center
09:29AM 46.0339 -115.3853 297° West 485 558 38,000  Level Seattle Center
09:30AM 46.0939 -115.5589 297° West 485 558 38,000  Level Seattle Center
09:31AM 46.1539 -115.7319 297° West 485 558 38,000  Level Seattle Center
09:32AM 46.2128 -115.9053 296° West 483 556 38,000  Level Seattle Center
09:33AM 46.2719 -116.0783 296° West 482 555 38,000  Level Seattle Center
09:34AM 46.3319 -116.2514 297° West 482 555 38,000  Level Seattle Center
09:35AM 46.3897 -116.4222 296° West 476 548 38,000  Level Seattle Center
09:36AM 46.4475 -116.5975 296° West 479 551 38,000  Level Seattle Center
09:37AM 46.5050 -116.7692 296° West 476 548 38,000  Level Seattle Center
09:38AM 46.5625 -116.9392 296° West 470 541 38,000  Level Seattle Center
09:39AM 46.6189 -117.1125 295° West 473 544 38,000  Level Seattle Center
09:40AM 46.6756 -117.2872 295° West 474 545 38,000  Level Seattle Center
09:41AM 46.7308 -117.4594 295° West 471 542 38,000  Level Seattle Center
09:42AM 46.7881 -117.6328 296° West 473 544 38,000  Level Seattle Center
09:43AM 46.8431 -117.8067 295° West 471 542 38,000  Level Seattle Center
09:44AM 46.9094 -118.0161 295° West 473 544 38,000  Level Seattle Center
09:45AM 46.9642 -118.1911 295° West 471 542 38,000  Level Seattle Center
09:46AM 47.0189 -118.3653 295° West 472 543 38,000  Level Seattle Center
09:47AM 47.0736 -118.5408 295° West 473 544 38,000  Level Seattle Center
09:48AM 47.1267 -118.7144 294° West 469 540 38,000  Level Seattle Center
09:49AM 47.1806 -118.8881 295° West 467 537 38,000  Level Seattle Center
09:50AM 47.2339 -119.0644 294° West 470 541 38,000  Level Seattle Center
09:51AM 47.2858 -119.2375 294° West 466 536 38,000 -60 Level Seattle Center
09:52AM 47.3386 -119.4128 294° West 468 539 37,900 -600 Descending Seattle Center
09:53AM 47.3897 -119.5883 293° West 467 537 36,900 -1,080 Descending Seattle Center
09:54AM 47.4419 -119.7642 294° West 469 540 35,800 -1,200 Descending Seattle Center
09:55AM 47.4944 -119.9375 294° West 464 534 34,500 -1,740 Descending Seattle Center
09:56AM 47.5431 -120.1036 293° West 445 512 32,300 -2,220 Descending Seattle Center
09:57AM 47.5872 -120.2572 293° West 413 475 30,000 -2,280 Descending Seattle Center
09:58AM 47.6208 -120.4200 287° West 414 476 27,700 -2,280 Descending Seattle Center
09:59AM 47.6594 -120.5997 288° West 453 521 25,400 -2,280 Descending Seattle Center
10:00AM 47.6969 -120.7772 287° West 453 521 23,100 -2,340 Descending Seattle Center
10:01AM 47.7361 -120.9569 288° West 432 497 20,800 -2,280 Descending Seattle Center
10:02AM 47.7686 -121.1214 286° West 421 484 18,600 -2,280 Descending Seattle Center
10:03AM 47.8067 -121.3042 287° West 411 473 16,200 -2,280 Descending Seattle Center
10:04AM 47.8264 -121.3981 287° West 392 451 15,000 -2,100 Descending Seattle Center
10:04AM 47.8378 -121.4628 285° West 387 445 14,100 -2,100 Descending Seattle Center
10:05AM 47.8603 -121.5708 287° West 374 430 12,700 -1,920 Descending Seattle Center
10:05AM 47.8667 -121.6089 284° West 374 430 12,200 -1,800 Descending Seattle Center
10:06AM 47.8653 -121.6939 269° West 356 410 11,100 -1,200 Descending Seattle Center
10:06AM 47.8492 -121.7472 246° West 351 404 11,000 -180 Descending Seattle Center
10:06AM 47.8214 -121.7917 227° Southwest 341 392 11,000  Level Seattle Center
10:07AM 47.7761 -121.8531 222° Southwest 353 406 11,000 -300 Level Seattle Center
10:08AM 47.7481 -121.9058 232° Southwest 355 409 10,700 -840 Descending Seattle Center
10:08AM 47.7442 -121.9739 265° West 317 365 10,200 -1,080 Descending Seattle Center
10:09AM 47.7422 -122.0478 268° West 286 329 9,500 -1,980 Descending Seattle Center
10:09AM 47.7408 -122.1031 268° West 293 337 8,200 -2,880 Descending Seattle Center
10:10AM 47.7369 -122.1761 266° West 286 329 6,300 -2,760 Descending Seattle Center
10:10AM 47.7339 -122.2211 264° West 290 334 5,400 -2,520 Descending Seattle Center
10:10AM 47.7336 -122.2506 269° West 283 326 4,800 -2,100 Descending Seattle Center
10:11AM 47.7300 -122.3289 266° West 267 307 3,300 -2,100 Descending Seattle Center
10:11AM 47.7294 -122.3581 268° West 246 283 2,700 -1,140 Descending Seattle Center
10:12AM 47.7225 -122.4244 261° West 237 273 2,200 -540 Descending Seattle Center
10:12AM 47.7158 -122.4447 244° Southwest 195 224 2,200  Level Seattle Center
10:13AM 47.6672 -122.4189 160° South 202 232 2,200 -60 Level Seattle Center
10:14AM 47.6344 -122.3922 151° Southeast 181 208 2,100 -360 Descending Seattle Center
10:15AM 47.6139 -122.3758 152° Southeast 164 189 1,800 -720 Descending Seattle Center
10:15AM 47.5983 -122.3606 146° Southeast 151 174 1,400 -840 Descending Seattle Center
10:16AM 47.5797 -122.3456 151° Southeast 125 144 900 -720 Descending Seattle Center
10:16AM 47.5681 -122.3356 150° Southeast 128 147 700 -660 Descending Seattle Center
10:16AM 47.5622 -122.3289 142° Southeast 122 140 500 -420 Descending Seattle Center
10:17AM 47.5436 -122.3133 151° Southeast 123 142 300 -300 Descending Seattle Center